Buena Vista, CO (81211)

6:52 AM MST on December 11, 2016 (GMT -0700)
Collegiate Heights | | Change Station

Elev 7946 ft 38.83 °N, 106.12 °W | Updated 8 seconds ago

Overcast
Overcast
35.4 °F
Feels Like 35 °F
N
2.9
Wind Variable Wind from WNW
Gusts 4.9 mph

Today
High -- | Low -- °F
--% Chance of Precip.
Yesterday
High -- | Low -- °F
Precip. -- in
Pressure 29.81 in
Visibility 10.0 miles
Clouds Mostly Cloudy 5000 ft
Overcast 6500 ft
Windchill 35 °F
Dew Point 32 °F
Humidity 87%
Rainfall 0.00 in
Snow Depth Not available.
7:13 AM 4:42 PM
Waxing Gibbous, 91% visible
METAR KAEJ 111335Z AUTO 00000KT 10SM BKN050 OVC065 02/00 A2981 RMK AO2 T00171002
Pressure 29.81 in
Visibility 10.0 miles
Clouds Mostly Cloudy 5000 ft
Overcast 6500 ft
Windchill 35 °F
Dew Point 32 °F
Humidity 87%
Rainfall 0.00 in
Snow Depth Not available.
7:13 AM 4:42 PM
Waxing Gibbous, 91% visible
METAR KAEJ 111335Z AUTO 00000KT 10SM BKN050 OVC065 02/00 A2981 RMK AO2 T00171002

10-Day Weather Forecast

Almanac

Astronomy

Dec. 11, 2016 Rise Set
Actual Time
Civil Twilight
Nautical Twilight
Astronomical Twilight
Moon
Length of Visible Light
Length of Day
Tomorrow will be .
, % of the Moon is Illuminated

Today's Extremes

State Highs State Lows

Community

WunderPhotos

Upload Photos

1,956,708 photos uploaded!

WunderBlog® & News

Nearby

Air Quality

  Air Quality AQ Index Pollutant
Not available.

Snow Depth

Station Depth Elevation

Earthquake Activity

City Distance Mag. Time & Date
Minimum magnitude displayed is 2.5.

Coastal Water Temperatures

Place Temperature

Stations

Nearby Weather Stations

Station Location Temp. Windchill Dew Point Humidity Wind Precip. Elev Updated Type
                   

Watches & Warnings

There are currently no watches in effect.